Terminal Aerodrome Forecast
Issued by NWS Pueblo, CO

Home | Current Version | Previous Version | Text Only | Print | Product List | Glossary On
Versions: 1 2 3 4 5 6 7 8 9 10 11 12 13 14 15 16 17 18 19 20 21
000
FTUS45 KPUB 291908 AAA
TAFALS
TAF AMD
KALS 291908Z 2919/3018 22013KT P6SM VCTS SCT080CB BKN140
      TEMPO 2920/2922 VRB20G30KT -TSRA BKN080CB
     FM300200 29007KT P6SM SCT100 BKN200
     FM300600 VRB06KT P6SM FEW120 SCT200=

USA.gov is the U.S. government's official web portal to all federal, state and local government web resources and services.